createdAt,value
2023-02-01T00:01:47.302Z,9.00
2023-02-01T00:04:16.364Z,7.50
2023-02-01T00:06:45.484Z,9.57
2023-02-01T00:09:14.479Z,8.10
2023-02-01T00:11:43.467Z,8.90
2023-02-01T00:14:13.140Z,8.68
2023-02-01T00:16:43.659Z,8.07
2023-02-01T00:19:15.325Z,7.97
2023-02-01T00:21:45.552Z,8.48
2023-02-01T00:24:14.902Z,7.85
2023-02-01T00:26:46.473Z,8.15
2023-02-01T00:29:18.261Z,7.93
2023-02-01T00:31:48.881Z,6.85
2023-02-01T00:34:19.049Z,6.80
2023-02-01T00:36:48.734Z,6.93
2023-02-01T00:39:18.249Z,7.78
2023-02-01T00:41:48.031Z,6.88
2023-02-01T00:44:17.346Z,6.68
2023-02-01T00:46:48.367Z,6.43
2023-02-01T00:49:17.654Z,7.68
2023-02-01T00:51:46.647Z,8.20
2023-02-01T00:54:18.908Z,8.50
2023-02-01T00:56:47.947Z,9.05
2023-02-01T00:59:17.169Z,9.13
2023-02-01T01:01:46.242Z,9.20
2023-02-01T01:04:16.683Z,8.20
2023-02-01T01:06:45.641Z,8.60
2023-02-01T01:09:14.807Z,8.15
2023-02-01T01:11:43.791Z,8.05
2023-02-01T01:14:13.379Z,8.70
2023-02-01T01:16:42.450Z,8.35
2023-02-01T01:19:11.422Z,8.43
2023-02-01T01:21:41.862Z,7.80
2023-02-01T01:24:11.070Z,8.02
2023-02-01T01:26:40.256Z,8.73
2023-02-01T01:29:11.616Z,7.43
2023-02-01T01:31:40.736Z,8.10
2023-02-01T01:34:11.018Z,8.65
2023-02-01T01:36:41.462Z,9.20
2023-02-01T01:39:10.467Z,10.13
2023-02-01T01:41:39.690Z,8.85
2023-02-01T01:44:59.221Z,9.65
2023-02-01T01:47:34.674Z,10.15
2023-02-01T01:50:06.149Z,7.72
2023-02-01T01:52:39.342Z,7.68
2023-02-01T01:55:09.347Z,9.80
2023-02-01T01:57:44.235Z,8.23
2023-02-01T02:00:16.705Z,9.00
2023-02-01T02:02:52.974Z,9.30
2023-02-01T02:05:25.638Z,6.68
2023-02-01T02:08:01.476Z,5.72
2023-02-01T02:10:45.351Z,5.93
2023-02-01T02:13:15.605Z,7.18
2023-02-01T02:15:56.993Z,8.90
2023-02-01T02:18:36.495Z,6.38
2023-02-01T02:21:17.104Z,5.93
2023-02-01T02:24:35.919Z,5.90
2023-02-01T02:27:27.707Z,4.72
2023-02-01T02:30:42.812Z,6.10
2023-02-01T02:33:44.255Z,5.50
2023-02-01T02:36:22.096Z,6.90
2023-02-01T02:39:02.161Z,5.90
2023-02-01T02:42:06.467Z,6.15
2023-02-01T02:45:03.926Z,5.18
2023-02-01T02:47:44.283Z,5.90
2023-02-01T02:50:46.117Z,6.95
2023-02-01T02:53:37.829Z,6.00
2023-02-01T02:56:27.800Z,5.85
2023-02-01T02:59:18.092Z,6.15
2023-02-01T03:02:09.108Z,7.88
2023-02-01T03:04:38.803Z,6.25
2023-02-01T03:07:37.691Z,6.78
2023-02-01T03:10:14.788Z,7.43
2023-02-01T03:12:58.080Z,7.43
2023-02-01T03:15:38.165Z,7.18
2023-02-01T03:18:15.327Z,6.70
2023-02-01T03:20:50.104Z,7.03
2023-02-01T03:23:23.996Z,8.18
2023-02-01T03:25:57.017Z,9.07
2023-02-01T03:28:27.861Z,9.10
2023-02-01T03:30:58.115Z,9.25
2023-02-01T03:33:31.199Z,9.93
2023-02-01T03:36:23.824Z,9.57
2023-02-01T03:39:00.211Z,9.45
2023-02-01T03:44:16.450Z,10.00
2023-02-01T03:46:52.052Z,9.95
2023-02-01T03:49:27.547Z,10.25
2023-02-01T03:51:59.021Z,10.23
2023-02-01T03:54:30.609Z,9.35
2023-02-01T03:57:05.313Z,10.25
2023-02-01T03:59:34.389Z,9.85
2023-02-01T04:02:03.696Z,9.05
2023-02-01T04:04:33.335Z,8.95
2023-02-01T04:07:02.537Z,8.20
2023-02-01T04:09:32.105Z,9.15
2023-02-01T04:12:03.450Z,10.00
2023-02-01T04:14:32.573Z,8.82
2023-02-01T04:17:01.614Z,10.27
2023-02-01T04:19:30.675Z,9.50
2023-02-01T04:21:59.759Z,9.43
2023-02-01T04:24:28.863Z,9.43
2023-02-01T04:26:57.922Z,11.30
2023-02-01T04:29:28.460Z,10.35
2023-02-01T04:31:57.472Z,11.05
2023-02-01T04:34:27.332Z,10.73
2023-02-01T04:36:56.448Z,10.80
2023-02-01T04:39:25.726Z,10.20
2023-02-01T04:41:54.966Z,11.77
2023-02-01T04:44:24.211Z,13.10
2023-02-01T04:46:54.733Z,14.20
2023-02-01T04:49:23.984Z,13.48
2023-02-01T04:51:53.069Z,16.45
2023-02-01T04:54:22.255Z,21.08
2023-02-01T04:56:51.320Z,14.02
2023-02-01T04:59:20.451Z,14.15
2023-02-01T05:01:49.533Z,12.32
2023-02-01T05:04:20.156Z,12.15
2023-02-01T05:06:49.286Z,12.63
2023-02-01T05:09:18.299Z,35.70
2023-02-01T05:12:04.888Z,24.55
2023-02-01T05:14:33.970Z,21.85
2023-02-01T05:17:03.130Z,18.33
2023-02-01T05:19:33.675Z,15.63
2023-02-01T05:22:02.788Z,13.90
2023-02-01T05:24:31.848Z,14.73
2023-02-01T05:27:00.934Z,13.95
2023-02-01T05:29:30.239Z,13.88
2023-02-01T05:32:05.241Z,15.15
2023-02-01T05:34:42.440Z,14.00
2023-02-01T05:37:11.501Z,13.98
2023-02-01T05:39:40.605Z,11.85
2023-02-01T05:42:09.629Z,12.40
2023-02-01T05:44:38.695Z,11.90
2023-02-01T05:47:07.722Z,10.38
2023-02-01T05:49:36.853Z,11.43
2023-02-01T05:52:07.368Z,11.63
2023-02-01T05:54:36.574Z,10.50
2023-02-01T05:57:05.947Z,11.77
2023-02-01T05:59:35.360Z,11.60
2023-02-01T06:02:04.390Z,16.30
2023-02-01T06:04:33.459Z,18.45
2023-02-01T06:07:02.475Z,13.15
2023-02-01T06:09:32.932Z,13.75
2023-02-01T06:12:02.402Z,15.30
2023-02-01T06:14:31.653Z,16.85
2023-02-01T06:17:00.808Z,15.13
2023-02-01T06:19:29.846Z,13.90
2023-02-01T06:21:58.851Z,18.27
2023-02-01T06:24:27.971Z,24.20
2023-02-01T06:26:58.379Z,23.73
2023-02-01T06:29:27.673Z,24.60
2023-02-01T06:31:56.782Z,22.25
2023-02-01T06:34:25.883Z,22.77
2023-02-01T06:36:56.005Z,15.30
2023-02-01T06:39:25.137Z,14.38
2023-02-01T06:41:54.181Z,13.77
2023-02-01T06:44:24.641Z,16.30
2023-02-01T06:46:53.731Z,13.55
2023-02-01T06:49:22.930Z,12.60
2023-02-01T06:51:51.976Z,12.88
2023-02-01T06:54:21.205Z,11.15
2023-02-01T06:56:50.443Z,10.10
2023-02-01T06:59:19.505Z,10.00
2023-02-01T07:01:49.994Z,9.35
2023-02-01T07:04:19.041Z,9.88
2023-02-01T07:06:48.164Z,10.35
2023-02-01T07:09:17.226Z,10.52
2023-02-01T07:11:46.312Z,11.88
2023-02-01T07:14:15.753Z,9.48
2023-02-01T07:16:44.749Z,10.40
2023-02-01T07:19:15.403Z,10.60
2023-02-01T07:21:44.407Z,9.45
2023-02-01T07:24:13.503Z,6.07
2023-02-01T07:26:42.897Z,8.40
2023-02-01T07:29:11.969Z,8.70
2023-02-01T07:31:41.225Z,8.18
2023-02-01T07:34:10.291Z,8.82
2023-02-01T07:36:40.734Z,8.07
2023-02-01T07:39:10.064Z,6.25
2023-02-01T07:41:39.139Z,6.88
2023-02-01T07:44:08.318Z,6.68
2023-02-01T07:46:37.430Z,8.18
2023-02-01T07:49:06.561Z,8.20
2023-02-01T07:51:35.698Z,8.98
2023-02-01T07:54:06.192Z,10.55
2023-02-01T07:56:35.276Z,9.27
2023-02-01T07:59:04.320Z,9.15
2023-02-01T08:01:32.370Z,7.60
2023-02-01T08:04:04.039Z,7.55
2023-02-01T08:06:36.079Z,6.97
2023-02-01T08:09:08.717Z,6.00
2023-02-01T08:11:38.975Z,6.68
2023-02-01T08:14:08.241Z,6.63
2023-02-01T08:16:38.901Z,6.43
2023-02-01T08:19:07.975Z,8.05
2023-02-01T08:21:38.457Z,8.98
2023-02-01T08:24:11.956Z,6.43
2023-02-01T08:26:41.201Z,5.28
2023-02-01T08:29:12.545Z,6.07
2023-02-01T08:31:44.451Z,5.88
2023-02-01T08:34:13.863Z,5.68
2023-02-01T08:36:43.024Z,5.28
2023-02-01T08:39:13.833Z,5.28
2023-02-01T08:42:03.494Z,5.55
2023-02-01T08:44:32.922Z,5.07
2023-02-01T08:47:01.974Z,5.45
2023-02-01T08:49:31.396Z,5.47
2023-02-01T08:52:03.969Z,5.40
2023-02-01T08:54:37.562Z,5.43
2023-02-01T08:57:06.947Z,5.65
2023-02-01T08:59:36.012Z,5.65
2023-02-01T09:02:05.149Z,5.38
2023-02-01T09:04:34.190Z,4.60
2023-02-01T09:07:03.272Z,2.78
2023-02-01T09:09:32.354Z,2.67
2023-02-01T09:12:02.950Z,2.70
2023-02-01T09:14:32.067Z,3.05
2023-02-01T09:17:01.130Z,3.05
2023-02-01T09:19:30.218Z,2.45
2023-02-01T09:21:59.353Z,1.60
2023-02-01T09:24:28.655Z,0.70
2023-02-01T09:26:57.952Z,0.63
2023-02-01T09:29:28.408Z,0.50
2023-02-01T09:32:03.735Z,0.38
2023-02-01T09:34:33.579Z,0.50
2023-02-01T09:37:03.018Z,0.50
2023-02-01T09:39:34.881Z,0.57
2023-02-01T09:42:19.115Z,0.55
2023-02-01T09:45:12.384Z,0.40
2023-02-01T09:47:49.433Z,0.40
2023-02-01T09:50:24.680Z,0.52
2023-02-01T09:53:01.372Z,0.40
2023-02-01T09:55:44.034Z,0.60
2023-02-01T09:58:20.395Z,0.50
2023-02-01T10:00:56.448Z,0.60
2023-02-01T10:03:29.217Z,0.77
2023-02-01T10:06:20.056Z,0.50
2023-02-01T10:09:25.090Z,0.60
2023-02-01T10:12:19.000Z,0.47
2023-02-01T10:15:04.241Z,0.60
2023-02-01T10:17:50.651Z,0.40
2023-02-01T10:20:29.620Z,0.40
2023-02-01T10:23:32.600Z,0.20
2023-02-01T10:26:15.348Z,0.70
2023-02-01T10:28:48.908Z,0.50
2023-02-01T10:31:19.523Z,0.60
2023-02-01T10:33:53.350Z,0.50
2023-02-01T10:36:30.246Z,0.55
2023-02-01T10:39:00.940Z,0.50
2023-02-01T10:41:35.413Z,0.73
2023-02-01T10:44:09.935Z,0.90
2023-02-01T10:46:39.139Z,0.82
2023-02-01T10:49:18.610Z,0.80
2023-02-01T10:51:54.053Z,0.90
2023-02-01T10:54:34.154Z,1.83
2023-02-01T10:57:03.307Z,1.20
2023-02-01T10:59:33.612Z,0.88
2023-02-01T11:02:07.810Z,1.48
2023-02-01T11:04:39.064Z,0.68
2023-02-01T11:07:15.253Z,0.47
2023-02-01T11:09:50.494Z,0.38
2023-02-01T11:12:31.856Z,0.47
2023-02-01T11:15:16.118Z,0.60
2023-02-01T11:17:52.538Z,0.40
2023-02-01T11:20:41.693Z,0.90
2023-02-01T11:23:17.604Z,1.45
2023-02-01T11:25:56.272Z,1.20
2023-02-01T11:28:29.085Z,1.20
2023-02-01T11:31:02.329Z,1.33
2023-02-01T11:33:36.272Z,1.02
2023-02-01T11:36:13.038Z,1.15
2023-02-01T11:38:55.898Z,0.93
2023-02-01T11:41:27.917Z,1.20
2023-02-01T11:44:00.057Z,1.05
2023-02-01T11:46:33.328Z,1.30
2023-02-01T11:49:23.580Z,0.93
2023-02-01T11:52:19.482Z,1.20
2023-02-01T11:55:10.748Z,1.30
2023-02-01T11:57:59.173Z,1.17
2023-02-01T12:00:49.004Z,1.05
2023-02-01T12:03:58.608Z,0.98
2023-02-01T12:06:38.577Z,0.75
2023-02-01T12:09:31.435Z,0.50
2023-02-01T12:12:11.381Z,0.32
2023-02-01T12:15:01.360Z,0.55
2023-02-01T12:17:50.288Z,0.60
2023-02-01T12:20:36.682Z,0.38
2023-02-01T12:23:23.270Z,0.40
2023-02-01T12:26:13.530Z,0.60
2023-02-01T12:29:07.218Z,0.70
2023-02-01T12:31:52.811Z,0.77
2023-02-01T12:34:50.033Z,0.45
2023-02-01T12:37:45.338Z,0.52
2023-02-01T12:40:30.930Z,0.68
2023-02-01T12:43:07.470Z,0.60
2023-02-01T12:45:43.168Z,0.60
2023-02-01T12:48:29.201Z,0.70
2023-02-01T12:51:02.938Z,0.47
2023-02-01T12:53:48.012Z,0.90
2023-02-01T12:56:27.486Z,0.77
2023-02-01T12:59:04.163Z,0.40
2023-02-01T13:01:39.734Z,0.43
2023-02-01T13:04:19.405Z,0.40
2023-02-01T13:06:54.719Z,0.43
2023-02-01T13:09:30.487Z,0.50
2023-02-01T13:12:13.662Z,0.77
2023-02-01T13:14:50.999Z,0.73
2023-02-01T13:17:25.735Z,0.40
2023-02-01T13:19:59.153Z,0.15
2023-02-01T13:22:33.765Z,0.50
2023-02-01T13:25:07.966Z,0.60
2023-02-01T13:27:38.293Z,0.60
2023-02-01T13:30:31.477Z,0.47
2023-02-01T13:33:53.776Z,0.40
2023-02-01T13:36:46.760Z,0.40
2023-02-01T13:40:10.222Z,0.40
2023-02-01T13:42:51.095Z,0.38
2023-02-01T13:45:26.404Z,0.50
2023-02-01T13:48:00.123Z,0.45
2023-02-01T13:50:35.135Z,0.68
2023-02-01T13:53:17.737Z,0.57
2023-02-01T13:55:48.935Z,0.40
2023-02-01T13:58:22.773Z,0.20
2023-02-01T14:01:13.462Z,0.50
2023-02-01T14:03:48.332Z,0.98
2023-02-01T14:06:46.456Z,1.35
2023-02-01T14:09:33.317Z,0.70
2023-02-01T14:12:49.904Z,0.95
2023-02-01T14:15:27.738Z,0.47
2023-02-01T14:17:58.704Z,0.50
2023-02-01T14:20:57.041Z,0.52
2023-02-01T14:23:34.051Z,0.70
2023-02-01T14:26:23.167Z,0.50
2023-02-01T14:29:03.609Z,0.45
2023-02-01T14:32:03.863Z,0.40
2023-02-01T14:34:53.530Z,0.40
2023-02-01T14:37:30.532Z,0.40
2023-02-01T14:40:03.639Z,0.63
2023-02-01T14:42:41.478Z,0.30
2023-02-01T14:45:53.556Z,0.30
2023-02-01T14:48:49.578Z,0.50
2023-02-01T14:51:21.384Z,0.50
2023-02-01T14:53:52.271Z,0.32
2023-02-01T14:56:22.989Z,0.43
2023-02-01T14:58:58.510Z,0.45
2023-02-01T15:01:31.941Z,0.80
2023-02-01T15:04:07.978Z,0.73
2023-02-01T15:06:42.435Z,0.70
2023-02-01T15:09:24.004Z,0.50
2023-02-01T15:12:02.039Z,0.50
2023-02-01T15:14:34.464Z,0.52
2023-02-01T15:17:04.058Z,0.60
2023-02-01T15:19:33.170Z,0.70
2023-02-01T15:22:03.729Z,0.50
2023-02-01T15:24:33.727Z,0.57
2023-02-01T15:27:07.949Z,0.63
2023-02-01T15:29:37.208Z,0.40
2023-02-01T15:32:07.255Z,0.52
2023-02-01T15:34:51.056Z,0.50
2023-02-01T15:37:24.238Z,0.68
2023-02-01T15:40:20.443Z,0.63
2023-02-01T15:42:55.248Z,0.88
2023-02-01T15:45:29.214Z,0.50
2023-02-01T15:48:01.672Z,0.63
2023-02-01T15:50:33.762Z,0.85
2023-02-01T15:53:06.184Z,1.42
2023-02-01T15:55:43.008Z,1.23
2023-02-01T15:58:27.223Z,0.90
2023-02-01T16:00:58.843Z,0.50
2023-02-01T16:03:37.037Z,0.93
2023-02-01T16:06:09.284Z,1.00
2023-02-01T16:08:50.863Z,1.02
2023-02-01T16:11:31.477Z,0.55
2023-02-01T16:14:01.703Z,1.10
2023-02-01T16:16:32.008Z,0.88
2023-02-01T16:19:01.143Z,0.80
2023-02-01T16:21:30.225Z,1.00
2023-02-01T16:24:04.888Z,0.85
2023-02-01T16:26:35.239Z,0.63
2023-02-01T16:29:07.209Z,1.10
2023-02-01T16:31:39.975Z,0.90
2023-02-01T16:34:16.244Z,0.80
2023-02-01T16:36:47.092Z,1.20
2023-02-01T16:39:17.662Z,1.30
2023-02-01T16:41:47.387Z,1.00
2023-02-01T16:44:16.543Z,1.13
2023-02-01T16:46:48.531Z,1.27
2023-02-01T16:49:22.569Z,0.98
2023-02-01T16:51:54.874Z,2.10
2023-02-01T16:54:25.461Z,1.33
2023-02-01T16:56:55.337Z,0.90
2023-02-01T16:59:24.428Z,1.20
2023-02-01T17:01:53.447Z,0.77
2023-02-01T17:04:23.024Z,1.05
2023-02-01T17:06:52.239Z,1.13
2023-02-01T17:09:21.911Z,1.25
2023-02-01T17:11:52.319Z,0.80
2023-02-01T17:14:23.549Z,0.88
2023-02-01T17:16:56.115Z,1.40
2023-02-01T17:19:26.118Z,0.73
2023-02-01T17:21:59.970Z,1.30
2023-02-01T17:24:47.674Z,1.20
2023-02-01T17:27:19.640Z,1.40
2023-02-01T17:29:51.787Z,1.40
2023-02-01T17:32:24.212Z,1.13
2023-02-01T17:34:53.492Z,1.40
2023-02-01T17:37:28.531Z,1.50
2023-02-01T17:39:58.163Z,1.30
2023-02-01T17:42:31.488Z,1.60
2023-02-01T17:45:03.711Z,1.52
2023-02-01T17:47:33.425Z,2.03
2023-02-01T17:50:03.059Z,1.77
2023-02-01T17:52:32.184Z,2.50
2023-02-01T17:55:01.287Z,2.08
2023-02-01T17:57:31.803Z,1.02
2023-02-01T18:00:00.954Z,1.23
2023-02-01T18:02:30.089Z,1.20
2023-02-01T18:05:00.646Z,1.20
2023-02-01T18:07:29.759Z,0.95
2023-02-01T18:09:58.844Z,1.13
2023-02-01T18:12:27.968Z,1.13
2023-02-01T18:14:58.709Z,1.40
2023-02-01T18:17:27.799Z,1.90
2023-02-01T18:19:56.822Z,1.75
2023-02-01T18:22:26.147Z,1.20
2023-02-01T18:24:55.185Z,1.55
2023-02-01T18:27:25.705Z,1.33
2023-02-01T18:29:55.798Z,1.17
2023-02-01T18:32:26.320Z,1.20
2023-02-01T18:34:55.890Z,1.05
2023-02-01T18:37:25.035Z,1.30
2023-02-01T18:39:54.170Z,1.65
2023-02-01T18:42:23.288Z,1.60
2023-02-01T18:44:52.503Z,1.27
2023-02-01T18:47:22.603Z,1.02
2023-02-01T18:49:53.018Z,1.30
2023-02-01T18:52:22.169Z,1.05
2023-02-01T18:54:59.119Z,1.08
2023-02-01T18:57:30.284Z,1.30
2023-02-01T18:59:59.749Z,1.30
2023-02-01T19:02:29.319Z,1.20
2023-02-01T19:05:00.023Z,1.00
2023-02-01T19:07:29.185Z,1.30
2023-02-01T19:09:58.480Z,1.38
2023-02-01T19:12:27.904Z,1.40
2023-02-01T19:14:57.229Z,0.98
2023-02-01T19:17:26.611Z,1.08
2023-02-01T19:19:58.642Z,1.17
2023-02-01T19:22:29.391Z,1.20
2023-02-01T19:24:58.556Z,1.52
2023-02-01T19:27:27.715Z,0.95
2023-02-01T19:29:56.833Z,0.95
2023-02-01T19:32:26.020Z,1.20
2023-02-01T19:34:55.218Z,1.20
2023-02-01T19:37:24.490Z,1.20
2023-02-01T19:39:55.995Z,0.82
2023-02-01T19:42:26.965Z,1.15
2023-02-01T19:45:01.125Z,1.02
2023-02-01T19:47:32.627Z,0.90
2023-02-01T19:50:02.125Z,0.95
2023-02-01T19:52:32.481Z,1.05
2023-02-01T19:55:03.241Z,1.13
2023-02-01T19:57:34.013Z,0.90
2023-02-01T20:00:03.830Z,1.23
2023-02-01T20:02:32.322Z,0.98
2023-02-01T20:05:01.483Z,1.10
2023-02-01T20:07:30.550Z,0.85
2023-02-01T20:10:02.945Z,1.10
2023-02-01T20:12:32.203Z,0.95
2023-02-01T20:15:01.397Z,0.85
2023-02-01T20:17:32.945Z,0.75
2023-02-01T20:20:03.539Z,0.95
2023-02-01T20:22:32.791Z,1.27
2023-02-01T20:25:04.387Z,1.20
2023-02-01T20:27:34.521Z,1.23
2023-02-01T20:30:04.996Z,0.88
2023-02-01T20:32:34.020Z,1.00
2023-02-01T20:35:03.134Z,0.90
2023-02-01T20:37:32.167Z,0.60
2023-02-01T20:40:01.338Z,0.90
2023-02-01T20:42:31.933Z,1.00
2023-02-01T20:45:01.272Z,0.82
2023-02-01T20:47:30.936Z,1.10
2023-02-01T20:50:00.305Z,1.02
2023-02-01T20:52:29.452Z,0.77
2023-02-01T20:54:58.656Z,0.93
2023-02-01T20:57:27.851Z,0.93
2023-02-01T20:59:59.445Z,0.88
2023-02-01T21:02:28.678Z,0.60
2023-02-01T21:04:57.877Z,0.60
2023-02-01T21:07:27.317Z,0.52
2023-02-01T21:09:57.570Z,0.70
2023-02-01T21:12:26.745Z,0.73
2023-02-01T21:14:56.431Z,0.70
2023-02-01T21:17:28.597Z,0.63
2023-02-01T21:19:57.946Z,0.65
2023-02-01T21:22:27.172Z,0.63
2023-02-01T21:24:56.653Z,0.70
2023-02-01T21:27:25.820Z,0.63
2023-02-01T21:29:54.901Z,0.80
2023-02-01T21:32:24.759Z,0.70
2023-02-01T21:34:58.623Z,0.82
2023-02-01T21:37:28.025Z,0.73
2023-02-01T21:39:57.487Z,0.88
2023-02-01T21:42:29.332Z,0.90
2023-02-01T21:44:59.611Z,0.80
2023-02-01T21:47:29.154Z,0.60
2023-02-01T21:50:00.292Z,0.98
2023-02-01T21:52:29.944Z,0.85
2023-02-01T21:54:59.958Z,1.10
2023-02-01T21:57:30.412Z,0.60
2023-02-01T22:00:00.221Z,0.80
2023-02-01T22:02:30.296Z,0.82
2023-02-01T22:05:01.625Z,0.88
2023-02-01T22:07:30.742Z,0.82
2023-02-01T22:10:00.975Z,0.98
2023-02-01T22:12:30.082Z,0.85
2023-02-01T22:14:59.173Z,0.80
2023-02-01T22:17:28.448Z,0.93
2023-02-01T22:19:57.693Z,0.60
2023-02-01T22:22:28.144Z,0.68
2023-02-01T22:24:57.408Z,0.80
2023-02-01T22:28:31.227Z,0.68
2023-02-01T22:30:16.249Z,0.77
2023-02-01T22:32:45.609Z,1.00
2023-02-01T22:35:15.019Z,0.70
2023-02-01T22:37:45.521Z,0.90
2023-02-01T22:40:15.165Z,0.85
2023-02-01T22:42:46.730Z,0.60
2023-02-01T22:45:16.272Z,0.70
2023-02-01T22:47:47.887Z,1.02
2023-02-01T22:50:17.677Z,0.80
2023-02-01T22:52:48.147Z,0.85
2023-02-01T22:55:17.435Z,0.90
2023-02-01T22:57:46.649Z,0.98
2023-02-01T23:00:16.533Z,0.95
2023-02-01T23:02:45.760Z,0.77
2023-02-01T23:05:15.006Z,0.98
2023-02-01T23:07:45.984Z,1.40
2023-02-01T23:10:18.095Z,1.05
2023-02-01T23:12:47.606Z,0.82
2023-02-01T23:15:18.045Z,0.60
2023-02-01T23:17:47.690Z,1.05
2023-02-01T23:20:19.452Z,1.02
2023-02-01T23:22:50.600Z,0.98
2023-02-01T23:25:21.191Z,0.77
2023-02-01T23:27:50.289Z,0.70
2023-02-01T23:30:19.763Z,0.90
2023-02-01T23:32:48.909Z,0.57
2023-02-01T23:35:18.173Z,0.90
2023-02-01T23:37:47.264Z,0.60
2023-02-01T23:40:16.787Z,1.08
2023-02-01T23:43:07.238Z,0.77
2023-02-01T23:45:36.357Z,0.70
2023-02-01T23:48:06.430Z,0.60
2023-02-01T23:50:35.518Z,0.80
2023-02-01T23:53:04.622Z,1.60
2023-02-01T23:55:33.685Z,1.08
2023-02-01T23:58:04.132Z,0.88
